x

Halibut Bank (46146) Wave Buoy

4:00am - Thu 23rd Nov 2017 All times are PST. -8 hours from GMT.

  • Sig Wave height 0.7ft
  • Peak Period 2s
  • Wind
    9mph, 11mph gusts
  • Sea Temp 48°f
  • Air Temp 52°f
  • Sea Pressure 1008.4mb
  • Halibut Bank
  • Halibut Bank

More Historic Weather Station data

Upgrade to MSW Pro to gain access to the past 30 days of data for over 8000 Wavebouys and Weather Stations around the globe.

Join

Comparision Forecast

View Surf forecast
   
Thu 11/23 4:00am 0.7ft 2s 9 11 mph 1008.4mb 48f 52f
3:00am 0.7ft 2s 7 9 mph 1008.3mb 48f 54f
2:00am 0.7ft 3s 7 11 mph 1007.7mb 49f 55f
1:00am 0.7ft 4s 4 9 mph 1007.4mb 49f 56f
12:00am 1ft 3s 9 9 mph 1007.2mb 49f 52f
Wed 11/22 11:00pm 1.3ft 4s 9 13 mph 1006.8mb 49f 54f
10:00pm 1.6ft 4s 9 13 mph 1006.8mb 49f 52f
9:00pm 2.5ft 5s 11 16 mph 1006.8mb 49f 52f
8:00pm 2.5ft 4s 18 20 mph 1006.4mb 49f 52f
7:00pm 2.5ft 4s 20 22 mph 1005.8mb 49f 53f
6:00pm 3ft 4s 22 27 mph 1005.5mb 49f 54f
5:00pm 3.5ft 4s 22 27 mph 1006.4mb 49f 54f
4:00pm 3.5ft 4s 29 34 mph 1006.2mb 49f 55f
2:00pm 2.5ft 4s 20 25 mph 1007.8mb 49f 53f
1:00pm 2.5ft 4s 20 27 mph 1009mb 48f 54f
12:00pm 2.5ft 4s 20 25 mph 1009.6mb 48f 53f
11:00am 2.5ft 4s 22 27 mph 1010.2mb 48f 53f
10:00am 2.5ft 4s 20 22 mph 1010.9mb 48f 53f
9:00am 2.5ft 4s 20 22 mph 1011.3mb 48f 53f
8:00am 2ft 3s 18 22 mph 1011.1mb 48f 52f
7:00am 2ft 3s 22 25 mph 1011mb 48f 53f
6:00am 1.6ft 3s 18 20 mph 1011.2mb 48f 51f
5:00am 1.6ft 3s 18 18 mph 1011.6mb 48f 51f
4:00am 1.6ft 3s 20 22 mph 1011.4mb 48f 50f
3:00am 1.6ft 3s 16 18 mph 1011.7mb 48f 51f
Tue 11/21 6:00pm 2ft 4s 18 20 mph 1008.2mb 48f 50f
5:00pm 1.3ft 3s 16 20 mph 1007.7mb 48f 49f
4:00pm 1.3ft 3s 13 16 mph 1007.8mb 48f 46f
3:00pm 1.6ft 3s 18 20 mph 1007.5mb 48f 44f
2:00pm 1.6ft 3s 18 22 mph 1008.2mb 48f 43f
1:00pm 1ft 3s 18 22 mph 1009.3mb 48f 44f
12:00pm 1.6ft 3s 16 20 mph 1011.7mb 48f 44f
11:00am 1.3ft 3s 18 22 mph 1012.8mb 48f 44f
9:00am 0.7ft 3s 13 18 mph 1015.4mb 48f 44f
8:00am 0.7ft 6s 4 7 mph 1015.9mb 48f 43f
7:00am 0.7ft 3s 2 2 mph 1016mb 48f 44f
6:00am 1ft 3s 9 13 mph 1016mb 48f 45f
5:00am 1ft 3s 7 7 mph 1016.9mb 47f 45f
4:00am 1.3ft 3s 11 13 mph 1017mb 47f 45f
3:00am 1.6ft 3s 13 16 mph 1017.9mb 48f 45f
2:00am 1.3ft 3s 16 18 mph 1018.2mb 48f 46f
1:00am 1.6ft 3s 18 20 mph 1018.2mb 48f 46f
12:00am 1ft 3s 16 18 mph 1018.5mb 48f 46f
Mon 11/20 11:00pm 1ft 3s 13 16 mph 1018.1mb 48f 46f
10:00pm 0.7ft 2s 11 13 mph 1018.1mb 49f 47f
9:00pm 0.7ft 3s 11 13 mph 1017.8mb 49f 46f
8:00pm 0.3ft 2s 13 16 mph 1016.5mb 49f 47f
7:00pm 0.7ft 6s 9 11 mph 1015.1mb 49f 46f
6:00pm 0.7ft 7s 2 2 mph 1013.6mb 49f 48f
5:00pm 0.7ft 3s 7 9 mph 1012.9mb 49f 47f
4:00pm 0.7ft 3s 4 4 mph 1011.7mb 49f 48f
3:00pm 1ft 3s 9 9 mph 1010.5mb 49f 48f
2:00pm 1ft 3s 9 11 mph 1009.3mb 49f 47f
1:00pm 1.3ft 3s 9 11 mph 1008.3mb 49f 47f
12:00pm 1ft 3s 16 18 mph 1006.8mb 49f 46f
11:00am 0.7ft 7s 11 13 mph 1005.6mb 49f 46f
10:00am 0.7ft 2s 7 9 mph 1003.9mb 49f 45f
9:00am 0.7ft 4s 7 9 mph 1002.6mb 49f 46f
8:00am 1ft 6s 2 2 mph 1001.4mb 49f 46f
7:00am 1.3ft 3s 2 4 mph 1000.9mb 49f 46f
6:00am 1.6ft 3s 13 16 mph 1000.6mb 49f 45f
5:00am 1.6ft 3s 18 20 mph 1000.2mb 49f 44f
4:00am 1.6ft 3s 18 20 mph 1000.4mb 49f 44f
3:00am 2ft 3s 13 16 mph 1001mb 49f 45f
2:00am 2.5ft 3s 18 22 mph 1001.2mb 49f 44f
1:00am 2.5ft 4s 22 25 mph 1001.1mb 49f 44f
12:00am 3.5ft 4s 25 29 mph 1000.9mb 49f 44f
Sun 11/19 11:00pm 4.5ft 5s 27 31 mph 1000.6mb 49f 44f
10:00pm 4.5ft 5s 29 34 mph 1000.6mb 49f 44f
9:00pm 5ft 5s 31 36 mph 1000.4mb 49f 44f
8:00pm 4.5ft 4s 31 38 mph 999.7mb 49f 44f
7:00pm 4.5ft 5s 29 36 mph 999.9mb 49f 45f
6:00pm 4.5ft 5s 29 34 mph 999.6mb 49f 45f
4:00pm 5ft 6s 31 38 mph 999.9mb 49f 46f
3:00pm 4.5ft 5s 31 38 mph 1000.2mb 49f 45f